Lemitar, New Mexico
Current Conditions -  °F | °C
As of 6:35 PM on Tuesday 25 Nov 2014 (Local Time) from KONM Reporting Station
Clear Clear  
Wind Chill:   Ceiling: Unl
Heat Index:   Visibility: 10mi
Dew Point: -16°   Wind: 5mph
Humidity: 20%   Direction: 30°NNE
Pressure: 30.26"   Gusts: NA
Location:  34.16°N, 106.91°W
Report Text: KONM 260135Z AUTO 03004KT 10SM CLR 05/M16 A3026 RMK AO2 T00541163
Loading
Personal Weather Stations






























Interactive Weather Map New forecast layout! Learn more

10-Day Weather Forecast

Advertisements
Track Severe Weather on mobile